createdAt,value
2019-02-26T00:00:47.339Z,33.50
2019-02-26T00:01:50.472Z,36.40
2019-02-26T00:02:50.649Z,34.40
2019-02-26T00:03:46.327Z,33.80
2019-02-26T00:04:46.306Z,35.60
2019-02-26T00:05:49.834Z,36.00
2019-02-26T00:06:49.026Z,35.40
2019-02-26T00:07:49.038Z,35.20
2019-02-26T00:08:49.232Z,38.10
2019-02-26T00:09:46.251Z,32.80
2019-02-26T00:10:46.268Z,37.70
2019-02-26T00:11:46.231Z,35.70
2019-02-26T00:12:46.219Z,33.90
2019-02-26T00:13:48.064Z,33.90
2019-02-26T00:14:47.875Z,35.90
2019-02-26T00:15:48.318Z,36.60
2019-02-26T00:16:46.750Z,35.20
2019-02-26T00:17:48.374Z,35.30
2019-02-26T00:18:46.160Z,37.40
2019-02-26T00:19:46.152Z,37.10
2019-02-26T00:20:46.131Z,36.90
2019-02-26T00:21:47.946Z,39.70
2019-02-26T00:22:46.109Z,37.30
2019-02-26T00:23:46.624Z,35.60
2019-02-26T00:24:46.636Z,36.40
2019-02-26T00:25:46.078Z,34.70
2019-02-26T00:26:46.078Z,34.40
2019-02-26T00:27:47.638Z,34.40
2019-02-26T00:28:46.038Z,36.10
2019-02-26T00:29:46.466Z,35.60
2019-02-26T00:30:46.020Z,37.70
2019-02-26T00:31:46.926Z,37.40
2019-02-26T00:32:45.999Z,39.50
2019-02-26T00:33:46.008Z,36.80
2019-02-26T00:34:45.979Z,38.80
2019-02-26T00:35:47.678Z,36.00
2019-02-26T00:36:45.968Z,34.30
2019-02-26T00:37:46.684Z,35.70
2019-02-26T00:38:45.939Z,36.50
2019-02-26T00:39:47.502Z,38.40
2019-02-26T00:40:45.904Z,37.60
2019-02-26T00:41:49.317Z,37.70
2019-02-26T00:42:50.249Z,38.40
2019-02-26T00:43:46.866Z,41.90
2019-02-26T00:44:45.870Z,37.20
2019-02-26T00:45:45.900Z,38.50
2019-02-26T00:46:45.856Z,37.40
2019-02-26T00:47:46.285Z,36.90
2019-02-26T00:48:45.817Z,40.20
2019-02-26T00:49:46.304Z,40.60
2019-02-26T00:50:45.788Z,40.20
2019-02-26T00:51:47.887Z,39.10
2019-02-26T00:52:45.765Z,38.60
2019-02-26T00:53:48.862Z,39.10
2019-02-26T00:54:46.754Z,39.00
2019-02-26T00:55:45.739Z,38.40
2019-02-26T00:56:45.742Z,39.10
2019-02-26T00:57:45.711Z,38.60
2019-02-26T00:58:46.316Z,38.20
2019-02-26T00:59:46.410Z,37.40
2019-02-26T01:00:45.686Z,36.40
2019-02-26T01:01:47.911Z,37.40
2019-02-26T01:02:45.663Z,39.80
2019-02-26T01:03:47.111Z,39.10
2019-02-26T01:04:46.756Z,38.70
2019-02-26T01:05:45.630Z,34.30
2019-02-26T01:06:45.644Z,37.90
2019-02-26T01:07:47.420Z,39.10
2019-02-26T01:08:47.085Z,37.30
2019-02-26T01:09:45.578Z,38.60
2019-02-26T01:10:45.856Z,37.70
2019-02-26T01:11:47.536Z,37.30
2019-02-26T01:12:45.546Z,36.20
2019-02-26T01:13:45.551Z,37.10
2019-02-26T01:14:46.349Z,36.40
2019-02-26T01:15:45.505Z,38.80
2019-02-26T01:16:46.092Z,34.40
2019-02-26T01:17:45.487Z,41.70
2019-02-26T01:18:47.235Z,38.90
2019-02-26T01:19:45.466Z,37.80
2019-02-26T01:20:48.309Z,38.30
2019-02-26T01:21:45.457Z,38.40
2019-02-26T01:22:45.648Z,44.30
2019-02-26T01:23:45.423Z,39.90
2019-02-26T01:24:45.410Z,41.10
2019-02-26T01:25:45.390Z,38.50
2019-02-26T01:26:45.402Z,40.20
2019-02-26T01:27:46.005Z,38.60
2019-02-26T01:28:48.329Z,40.90
2019-02-26T01:29:47.345Z,38.20
2019-02-26T01:30:45.340Z,39.70
2019-02-26T01:31:45.344Z,41.60
2019-02-26T01:32:45.318Z,40.80
2019-02-26T01:33:46.764Z,40.40
2019-02-26T01:34:47.278Z,41.10
2019-02-26T01:35:45.292Z,40.70
2019-02-26T01:36:47.229Z,42.80
2019-02-26T01:37:45.257Z,42.10
2019-02-26T01:38:46.360Z,40.30
2019-02-26T01:39:47.080Z,43.40
2019-02-26T01:40:46.543Z,41.60
2019-02-26T01:41:46.066Z,44.50
2019-02-26T01:42:49.767Z,42.50
2019-02-26T01:43:46.190Z,39.80
2019-02-26T01:44:45.189Z,40.10
2019-02-26T01:45:46.174Z,39.60
2019-02-26T01:46:45.182Z,41.50
2019-02-26T01:47:47.717Z,38.00
2019-02-26T01:48:45.138Z,44.30
2019-02-26T01:49:46.542Z,41.10
2019-02-26T01:50:45.120Z,40.90
2019-02-26T01:51:47.476Z,39.40
2019-02-26T01:52:45.097Z,41.70
2019-02-26T01:53:46.923Z,41.90
2019-02-26T01:54:45.070Z,42.50
2019-02-26T01:55:45.917Z,41.40
2019-02-26T01:56:45.098Z,42.00
2019-02-26T01:57:45.034Z,41.00
2019-02-26T01:58:45.024Z,41.60
2019-02-26T01:59:45.014Z,40.40
2019-02-26T02:00:45.002Z,42.40
2019-02-26T02:01:46.526Z,44.50
2019-02-26T02:02:44.994Z,41.10
2019-02-26T02:03:47.001Z,45.10
2019-02-26T02:04:44.976Z,41.30
2019-02-26T02:05:45.829Z,43.10
2019-02-26T02:06:44.954Z,41.30
2019-02-26T02:07:48.481Z,41.20
2019-02-26T02:08:45.891Z,41.80
2019-02-26T02:09:48.676Z,43.10
2019-02-26T02:10:45.886Z,42.40
2019-02-26T02:11:44.916Z,44.50
2019-02-26T02:12:44.868Z,40.50
2019-02-26T02:13:44.856Z,42.70
2019-02-26T02:14:44.847Z,43.50
2019-02-26T02:15:46.510Z,42.10
2019-02-26T02:16:44.836Z,42.00
2019-02-26T02:17:44.817Z,40.40
2019-02-26T02:18:48.074Z,41.70
2019-02-26T02:19:44.794Z,42.50
2019-02-26T02:20:44.776Z,41.70
2019-02-26T02:21:44.782Z,40.70
2019-02-26T02:22:44.758Z,42.70
2019-02-26T02:23:46.435Z,42.50
2019-02-26T02:24:46.714Z,42.30
2019-02-26T02:25:45.666Z,42.00
2019-02-26T02:26:47.451Z,42.60
2019-02-26T02:27:47.515Z,45.80
2019-02-26T02:28:45.704Z,44.00
2019-02-26T02:29:46.122Z,42.80
2019-02-26T02:30:44.680Z,45.20
2019-02-26T02:31:44.651Z,42.00
2019-02-26T02:32:47.209Z,45.30
2019-02-26T02:33:45.626Z,45.10
2019-02-26T02:34:44.616Z,42.50
2019-02-26T02:35:44.606Z,46.20
2019-02-26T02:36:44.597Z,45.80
2019-02-26T02:37:44.716Z,44.50
2019-02-26T02:38:44.589Z,46.60
2019-02-26T02:39:44.583Z,44.90
2019-02-26T02:40:46.293Z,45.90
2019-02-26T02:41:45.437Z,47.60
2019-02-26T02:42:48.414Z,47.10
2019-02-26T02:43:44.523Z,48.50
2019-02-26T02:44:46.736Z,48.10
2019-02-26T02:45:44.515Z,49.60
2019-02-26T02:46:46.293Z,49.70
2019-02-26T02:47:44.500Z,48.70
2019-02-26T02:48:44.465Z,49.30
2019-02-26T02:49:44.469Z,50.30
2019-02-26T02:50:44.451Z,45.00
2019-02-26T02:51:44.435Z,44.80
2019-02-26T02:52:44.434Z,48.40
2019-02-26T02:53:45.270Z,46.60
2019-02-26T02:54:47.010Z,47.00
2019-02-26T02:55:47.008Z,44.20
2019-02-26T02:56:44.458Z,47.40
2019-02-26T02:57:46.488Z,45.80
2019-02-26T02:58:46.886Z,47.10
2019-02-26T02:59:44.341Z,45.20
2019-02-26T03:00:46.105Z,47.60
2019-02-26T03:01:45.796Z,44.60
2019-02-26T03:02:46.676Z,45.00
2019-02-26T03:03:47.629Z,48.00
2019-02-26T03:04:44.281Z,44.70
2019-02-26T03:05:45.916Z,48.80
2019-02-26T03:06:44.260Z,47.60
2019-02-26T03:07:47.539Z,46.10
2019-02-26T03:08:45.230Z,45.10
2019-02-26T03:09:45.779Z,48.40
2019-02-26T03:10:45.027Z,50.80
2019-02-26T03:11:46.429Z,48.80
2019-02-26T03:12:48.695Z,48.60
2019-02-26T03:13:45.768Z,48.50
2019-02-26T03:14:44.584Z,50.00
2019-02-26T03:15:44.157Z,47.00
2019-02-26T03:16:45.570Z,50.10
2019-02-26T03:17:44.139Z,48.70
2019-02-26T03:18:44.124Z,46.20
2019-02-26T03:19:44.113Z,50.00
2019-02-26T03:20:44.100Z,48.70
2019-02-26T03:21:45.421Z,49.70
2019-02-26T03:22:48.765Z,49.10
2019-02-26T03:23:45.592Z,50.80
2019-02-26T03:24:44.080Z,53.00
2019-02-26T03:25:44.539Z,51.00
2019-02-26T03:26:44.031Z,49.50
2019-02-26T03:27:44.046Z,47.90
2019-02-26T03:28:44.647Z,50.90
2019-02-26T03:29:45.054Z,48.20
2019-02-26T03:30:44.660Z,49.00
2019-02-26T03:31:47.055Z,53.60
2019-02-26T03:32:47.236Z,48.50
2019-02-26T03:33:44.953Z,52.30
2019-02-26T03:34:43.945Z,50.70
2019-02-26T03:35:43.932Z,52.90
2019-02-26T03:36:45.772Z,52.70
2019-02-26T03:37:43.948Z,49.60
2019-02-26T03:38:46.434Z,53.80
2019-02-26T03:39:43.898Z,51.60
2019-02-26T03:40:43.872Z,53.10
2019-02-26T03:41:45.819Z,51.20
2019-02-26T03:42:46.091Z,51.10
2019-02-26T03:43:43.842Z,50.80
2019-02-26T03:44:46.066Z,49.40
2019-02-26T03:45:47.315Z,50.70
2019-02-26T03:46:43.808Z,50.00
2019-02-26T03:47:43.821Z,49.70
2019-02-26T03:48:43.786Z,51.50
2019-02-26T03:49:43.777Z,50.90
2019-02-26T03:50:44.643Z,56.00
2019-02-26T03:51:43.758Z,54.00
2019-02-26T03:52:43.767Z,52.80
2019-02-26T03:53:44.167Z,54.50
2019-02-26T03:54:45.960Z,49.70
2019-02-26T03:55:44.022Z,48.40
2019-02-26T03:56:43.694Z,50.80
2019-02-26T03:57:47.505Z,49.50
2019-02-26T03:58:44.672Z,51.20
2019-02-26T03:59:43.680Z,51.20
2019-02-26T04:00:44.818Z,49.90
2019-02-26T04:01:43.638Z,50.40
2019-02-26T04:02:47.690Z,49.70
2019-02-26T04:03:43.622Z,46.80
2019-02-26T04:04:45.852Z,51.40
2019-02-26T04:05:44.600Z,49.60
2019-02-26T04:06:46.764Z,52.80
2019-02-26T04:07:43.594Z,52.30
2019-02-26T04:08:46.189Z,50.90
2019-02-26T04:09:44.397Z,51.70
2019-02-26T04:10:45.630Z,50.00
2019-02-26T04:11:45.563Z,50.50
2019-02-26T04:12:45.031Z,51.00
2019-02-26T04:13:46.095Z,54.00
2019-02-26T04:14:43.501Z,51.20
2019-02-26T04:15:43.493Z,50.50
2019-02-26T04:16:43.738Z,50.10
2019-02-26T04:17:43.486Z,49.90
2019-02-26T04:18:43.446Z,51.90
2019-02-26T04:19:44.494Z,51.10
2019-02-26T04:20:44.397Z,52.50
2019-02-26T04:21:43.418Z,52.10
2019-02-26T04:22:48.892Z,52.30
2019-02-26T04:23:46.520Z,54.40
2019-02-26T04:24:43.389Z,50.30
2019-02-26T04:25:43.377Z,49.00
2019-02-26T04:26:43.360Z,51.40
2019-02-26T04:27:44.163Z,50.50
2019-02-26T04:28:44.972Z,51.50
2019-02-26T04:29:44.122Z,52.30
2019-02-26T04:30:44.625Z,50.60
2019-02-26T04:31:44.591Z,53.60
2019-02-26T04:32:43.534Z,52.70
2019-02-26T04:33:43.288Z,52.00
2019-02-26T04:34:43.270Z,48.70
2019-02-26T04:35:44.893Z,48.90
2019-02-26T04:36:44.828Z,52.30
2019-02-26T04:37:43.251Z,51.40
2019-02-26T04:38:43.803Z,51.90
2019-02-26T04:39:44.967Z,53.30
2019-02-26T04:40:43.201Z,52.40
2019-02-26T04:41:43.189Z,55.10
2019-02-26T04:42:45.956Z,49.00
2019-02-26T04:43:43.173Z,52.10
2019-02-26T04:44:43.172Z,51.80
2019-02-26T04:45:43.147Z,52.20
2019-02-26T04:46:43.138Z,52.90
2019-02-26T04:47:45.961Z,49.50
2019-02-26T04:48:44.118Z,54.30
2019-02-26T04:49:43.217Z,51.90
2019-02-26T04:50:44.529Z,50.00
2019-02-26T04:51:45.042Z,49.30
2019-02-26T04:52:43.627Z,49.10
2019-02-26T04:53:43.077Z,49.70
2019-02-26T04:54:43.050Z,50.20
2019-02-26T04:55:44.922Z,49.90
2019-02-26T04:56:45.103Z,49.30
2019-02-26T04:57:45.516Z,53.00
2019-02-26T04:58:45.906Z,52.20
2019-02-26T04:59:43.821Z,50.10
2019-02-26T05:00:42.978Z,51.70
2019-02-26T05:01:44.638Z,50.40
2019-02-26T05:02:42.954Z,48.80
2019-02-26T05:03:42.976Z,51.10
2019-02-26T05:04:42.931Z,50.10
2019-02-26T05:05:42.933Z,52.30
2019-02-26T05:06:42.907Z,51.40
2019-02-26T05:07:46.532Z,52.30
2019-02-26T05:08:43.000Z,49.20
2019-02-26T05:09:42.882Z,47.80
2019-02-26T05:10:42.866Z,49.90
2019-02-26T05:11:42.851Z,50.00
2019-02-26T05:12:42.846Z,48.50
2019-02-26T05:13:42.849Z,50.10
2019-02-26T05:14:42.829Z,49.10
2019-02-26T05:15:43.658Z,50.10
2019-02-26T05:16:42.795Z,52.50
2019-02-26T05:17:42.785Z,49.70
2019-02-26T05:18:44.402Z,50.20
2019-02-26T05:19:46.101Z,49.60
2019-02-26T05:20:48.102Z,50.10
2019-02-26T05:21:42.743Z,50.50
2019-02-26T05:22:42.730Z,50.20
2019-02-26T05:23:42.735Z,49.40
2019-02-26T05:24:44.805Z,49.10
2019-02-26T05:25:44.815Z,52.50
2019-02-26T05:26:42.686Z,52.80
2019-02-26T05:27:45.238Z,50.90
2019-02-26T05:28:46.142Z,50.00
2019-02-26T05:29:43.419Z,54.40
2019-02-26T05:30:43.867Z,50.90
2019-02-26T05:31:43.215Z,49.70
2019-02-26T05:32:42.614Z,51.90
2019-02-26T05:33:42.626Z,50.40
2019-02-26T05:34:45.154Z,51.10
2019-02-26T05:35:45.645Z,49.40
2019-02-26T05:36:45.442Z,53.80
2019-02-26T05:37:42.564Z,52.00
2019-02-26T05:38:42.567Z,51.70
2019-02-26T05:39:43.162Z,50.40
2019-02-26T05:40:43.355Z,55.70
2019-02-26T05:41:42.521Z,49.90
2019-02-26T05:42:42.508Z,52.90
2019-02-26T05:43:42.509Z,53.40
2019-02-26T05:44:42.474Z,53.10
2019-02-26T05:45:42.477Z,50.90
2019-02-26T05:46:42.459Z,51.30
2019-02-26T05:47:43.636Z,53.80
2019-02-26T05:48:43.024Z,51.20
2019-02-26T05:49:43.801Z,55.50
2019-02-26T05:50:44.771Z,51.00
2019-02-26T05:51:42.398Z,51.70
2019-02-26T05:52:42.395Z,52.90
2019-02-26T05:53:42.399Z,52.20
2019-02-26T05:54:42.372Z,53.00
2019-02-26T05:55:47.079Z,50.60
2019-02-26T05:56:44.140Z,54.70
2019-02-26T05:57:42.333Z,54.30
2019-02-26T05:58:46.393Z,52.30
2019-02-26T05:59:42.322Z,53.10
2019-02-26T06:00:42.307Z,49.00
2019-02-26T06:01:43.795Z,50.20
2019-02-26T06:02:44.878Z,47.40
2019-02-26T06:03:45.726Z,52.60
2019-02-26T06:04:44.516Z,53.50
2019-02-26T06:05:45.740Z,49.30
2019-02-26T06:06:42.230Z,50.00
2019-02-26T06:07:42.224Z,52.80
2019-02-26T06:08:42.233Z,50.70
2019-02-26T06:09:42.196Z,53.80
2019-02-26T06:10:42.194Z,51.30
2019-02-26T06:11:46.910Z,53.40
2019-02-26T06:12:44.622Z,52.90
2019-02-26T06:13:43.215Z,49.50
2019-02-26T06:14:42.150Z,49.70
2019-02-26T06:15:42.143Z,51.40
2019-02-26T06:16:43.225Z,49.00
2019-02-26T06:17:45.228Z,54.00
2019-02-26T06:18:44.048Z,49.80
2019-02-26T06:19:42.932Z,55.30
2019-02-26T06:20:42.074Z,52.30
2019-02-26T06:21:44.237Z,51.70
2019-02-26T06:22:42.079Z,53.30
2019-02-26T06:23:43.201Z,52.40
2019-02-26T06:24:42.057Z,48.70
2019-02-26T06:25:42.022Z,50.10
2019-02-26T06:26:43.196Z,53.40
2019-02-26T06:27:41.999Z,54.60
2019-02-26T06:28:43.505Z,52.40
2019-02-26T06:29:41.996Z,54.90
2019-02-26T06:30:41.967Z,54.90
2019-02-26T06:31:43.006Z,54.00
2019-02-26T06:32:44.438Z,50.80
2019-02-26T06:33:43.676Z,54.00
2019-02-26T06:34:41.940Z,54.00
2019-02-26T06:35:42.857Z,53.70
2019-02-26T06:36:42.481Z,51.70
2019-02-26T06:37:41.884Z,53.30
2019-02-26T06:38:41.878Z,52.80
2019-02-26T06:39:41.886Z,54.50
2019-02-26T06:40:45.884Z,53.90
2019-02-26T06:41:44.423Z,56.50
2019-02-26T06:42:41.830Z,56.40
2019-02-26T06:43:45.025Z,56.80
2019-02-26T06:44:43.820Z,55.20
2019-02-26T06:45:43.582Z,57.70
2019-02-26T06:46:41.794Z,60.20
2019-02-26T06:47:41.771Z,58.30
2019-02-26T06:48:41.763Z,58.30
2019-02-26T06:49:43.246Z,54.60
2019-02-26T06:50:43.508Z,58.60
2019-02-26T06:51:42.979Z,59.50
2019-02-26T06:52:43.046Z,55.70
2019-02-26T06:53:45.040Z,60.70
2019-02-26T06:54:47.819Z,57.70
2019-02-26T06:55:42.682Z,58.60
2019-02-26T06:56:43.894Z,55.90
2019-02-26T06:57:44.011Z,61.90
2019-02-26T06:58:43.249Z,54.20
2019-02-26T06:59:41.670Z,59.60
2019-02-26T07:00:43.638Z,57.70
2019-02-26T07:01:41.952Z,59.20
2019-02-26T07:02:45.490Z,60.80
2019-02-26T07:03:41.592Z,58.30
2019-02-26T07:04:41.607Z,61.00
2019-02-26T07:05:42.383Z,59.30
2019-02-26T07:06:41.560Z,55.00
2019-02-26T07:07:41.569Z,61.00
2019-02-26T07:08:42.099Z,58.10
2019-02-26T07:09:43.778Z,57.40
2019-02-26T07:10:41.512Z,59.90
2019-02-26T07:11:41.511Z,57.00
2019-02-26T07:12:43.124Z,58.00
2019-02-26T07:13:43.975Z,60.00
2019-02-26T07:14:41.505Z,60.40
2019-02-26T07:15:42.945Z,58.70
2019-02-26T07:16:41.444Z,63.10
2019-02-26T07:17:42.991Z,60.60
2019-02-26T07:18:41.425Z,65.20
2019-02-26T07:19:41.435Z,59.40
2019-02-26T07:20:46.518Z,59.30
2019-02-26T07:21:43.427Z,59.20
2019-02-26T07:22:42.013Z,59.10
2019-02-26T07:23:41.372Z,59.90
2019-02-26T07:24:43.648Z,57.10
2019-02-26T07:25:43.886Z,58.80
2019-02-26T07:26:43.623Z,62.60
2019-02-26T07:27:41.324Z,61.00
2019-02-26T07:28:42.360Z,61.40
2019-02-26T07:29:44.379Z,60.40
2019-02-26T07:30:42.855Z,64.10
2019-02-26T07:31:41.299Z,60.70
2019-02-26T07:32:43.166Z,63.60
2019-02-26T07:33:41.256Z,60.40
2019-02-26T07:34:42.826Z,62.00
2019-02-26T07:35:41.237Z,60.90
2019-02-26T07:36:43.169Z,67.00
2019-02-26T07:37:41.232Z,64.50
2019-02-26T07:38:43.820Z,60.50
2019-02-26T07:39:41.951Z,66.70
2019-02-26T07:40:41.176Z,70.10
2019-02-26T07:41:42.271Z,68.90
2019-02-26T07:42:41.938Z,64.50
2019-02-26T07:43:43.951Z,66.20
2019-02-26T07:44:42.158Z,65.10
2019-02-26T07:45:41.120Z,65.20
2019-02-26T07:46:42.559Z,62.80
2019-02-26T07:47:41.096Z,63.00
2019-02-26T07:48:41.086Z,66.90
2019-02-26T07:49:41.113Z,70.40
2019-02-26T07:50:45.372Z,65.10
2019-02-26T07:51:42.893Z,65.90
2019-02-26T07:52:41.039Z,67.20
2019-02-26T07:53:44.410Z,65.90
2019-02-26T07:54:42.838Z,66.50
2019-02-26T07:55:42.374Z,68.90
2019-02-26T07:56:40.996Z,62.40
2019-02-26T07:57:43.015Z,68.40
2019-02-26T07:58:42.959Z,63.80
2019-02-26T07:59:42.576Z,68.30
2019-02-26T08:00:42.900Z,67.30
2019-02-26T08:01:43.112Z,66.50
2019-02-26T08:02:40.925Z,64.20
2019-02-26T08:03:42.060Z,66.70
2019-02-26T08:04:41.847Z,67.70
2019-02-26T08:05:40.896Z,61.60
2019-02-26T08:06:40.883Z,67.60
2019-02-26T08:07:40.883Z,69.00
2019-02-26T08:08:42.061Z,66.00
2019-02-26T08:09:40.866Z,65.60
2019-02-26T08:10:42.795Z,70.10
2019-02-26T08:11:42.128Z,66.20
2019-02-26T08:12:42.569Z,62.60
2019-02-26T08:13:40.805Z,66.90
2019-02-26T08:14:42.776Z,66.60
2019-02-26T08:15:40.808Z,62.00
2019-02-26T08:16:40.774Z,66.20
2019-02-26T08:17:40.760Z,67.10
2019-02-26T08:18:40.752Z,63.40
2019-02-26T08:19:43.710Z,67.10
2019-02-26T08:20:41.728Z,66.40
2019-02-26T08:21:40.720Z,64.60
2019-02-26T08:22:40.715Z,64.40
2019-02-26T08:23:41.390Z,68.00
2019-02-26T08:24:40.759Z,64.50
2019-02-26T08:25:40.682Z,67.00
2019-02-26T08:26:42.867Z,65.30
2019-02-26T08:27:40.659Z,69.10
2019-02-26T08:28:41.965Z,65.20
2019-02-26T08:29:40.660Z,71.50
2019-02-26T08:30:44.473Z,71.50
2019-02-26T08:31:42.626Z,70.40
2019-02-26T08:32:40.602Z,69.90
2019-02-26T08:33:40.603Z,69.00
2019-02-26T08:34:40.597Z,68.40
2019-02-26T08:35:40.560Z,67.90
2019-02-26T08:36:40.545Z,71.50
2019-02-26T08:37:40.550Z,73.80
2019-02-26T08:38:40.536Z,70.10
2019-02-26T08:39:40.541Z,65.30
2019-02-26T08:40:40.507Z,65.50
2019-02-26T08:41:40.488Z,66.80
2019-02-26T08:42:40.480Z,68.40
2019-02-26T08:43:44.161Z,70.30
2019-02-26T08:44:41.480Z,68.00
2019-02-26T08:45:40.458Z,71.00
2019-02-26T08:46:42.718Z,69.60
2019-02-26T08:47:40.425Z,68.90
2019-02-26T08:48:41.304Z,68.70
2019-02-26T08:49:42.580Z,70.60
2019-02-26T08:50:42.278Z,70.20
2019-02-26T08:51:40.383Z,67.90
2019-02-26T08:52:40.366Z,69.60
2019-02-26T08:53:40.356Z,68.50
2019-02-26T08:54:40.375Z,74.20
2019-02-26T08:55:40.332Z,72.00
2019-02-26T08:56:40.950Z,71.20
2019-02-26T08:57:40.308Z,71.70
2019-02-26T08:58:41.124Z,70.40
2019-02-26T08:59:42.084Z,71.50
2019-02-26T09:00:40.277Z,71.60
2019-02-26T09:01:40.363Z,69.50
2019-02-26T09:02:41.206Z,73.00
2019-02-26T09:03:41.021Z,71.40
2019-02-26T09:04:42.286Z,73.70
2019-02-26T09:05:40.250Z,72.50
2019-02-26T09:06:40.208Z,75.50
2019-02-26T09:07:40.842Z,75.00
2019-02-26T09:08:41.217Z,76.80
2019-02-26T09:09:40.181Z,71.50
2019-02-26T09:10:41.322Z,70.80
2019-02-26T09:11:40.153Z,79.70
2019-02-26T09:12:41.897Z,73.50
2019-02-26T09:13:41.275Z,73.90
2019-02-26T09:14:40.876Z,75.70
2019-02-26T09:15:41.375Z,72.90
2019-02-26T09:16:40.104Z,75.70
2019-02-26T09:17:42.065Z,76.50
2019-02-26T09:18:40.575Z,72.20
2019-02-26T09:19:40.087Z,68.70
2019-02-26T09:20:40.080Z,76.20
2019-02-26T09:21:42.589Z,71.20
2019-02-26T09:22:40.536Z,73.10
2019-02-26T09:23:40.045Z,75.20
2019-02-26T09:24:40.012Z,74.80
2019-02-26T09:25:40.020Z,71.30
2019-02-26T09:26:39.994Z,76.70
2019-02-26T09:27:43.017Z,72.20
2019-02-26T09:28:39.965Z,74.60
2019-02-26T09:29:43.929Z,74.90
2019-02-26T09:30:40.962Z,74.10
2019-02-26T09:31:39.930Z,76.30
2019-02-26T09:32:42.063Z,79.90
2019-02-26T09:33:40.931Z,75.50
2019-02-26T09:34:40.029Z,80.50
2019-02-26T09:35:39.908Z,80.40
2019-02-26T09:36:39.878Z,74.30
2019-02-26T09:37:39.879Z,77.60
2019-02-26T09:38:41.781Z,77.80
2019-02-26T09:39:39.833Z,78.20
2019-02-26T09:40:39.859Z,78.40
2019-02-26T09:41:40.398Z,73.30
2019-02-26T09:42:39.809Z,74.60
2019-02-26T09:43:41.028Z,71.50
2019-02-26T09:44:39.793Z,77.40
2019-02-26T09:45:41.735Z,74.70
2019-02-26T09:46:41.935Z,70.10
2019-02-26T09:47:39.765Z,74.50
2019-02-26T09:48:41.112Z,73.70
2019-02-26T09:49:39.726Z,71.90
2019-02-26T09:50:41.337Z,75.50
2019-02-26T09:51:40.087Z,80.10
2019-02-26T09:52:39.688Z,77.90
2019-02-26T09:53:39.680Z,75.70
2019-02-26T09:54:42.657Z,77.90
2019-02-26T09:55:39.678Z,75.70
2019-02-26T09:56:39.646Z,73.30
2019-02-26T09:57:39.642Z,74.90
2019-02-26T09:58:40.356Z,77.90
2019-02-26T09:59:39.614Z,69.80
2019-02-26T10:00:40.487Z,69.90
2019-02-26T10:01:40.790Z,73.80
2019-02-26T10:02:40.139Z,74.40
2019-02-26T10:03:41.323Z,73.00
2019-02-26T10:04:39.558Z,72.50
2019-02-26T10:05:39.556Z,73.80
2019-02-26T10:06:40.714Z,71.10
2019-02-26T10:07:39.517Z,72.10
2019-02-26T10:08:39.508Z,74.20
2019-02-26T10:09:40.740Z,74.40
2019-02-26T10:10:40.510Z,75.00
2019-02-26T10:11:41.911Z,77.10
2019-02-26T10:12:39.467Z,75.80
2019-02-26T10:13:41.479Z,77.90
2019-02-26T10:14:39.440Z,74.50
2019-02-26T10:15:40.616Z,75.00
2019-02-26T10:16:39.423Z,70.40
2019-02-26T10:17:40.793Z,72.30
2019-02-26T10:18:39.394Z,72.30
2019-02-26T10:19:41.032Z,74.20
2019-02-26T10:20:39.403Z,69.60
2019-02-26T10:21:40.060Z,69.40
2019-02-26T10:22:40.469Z,72.70
2019-02-26T10:23:39.343Z,64.00
2019-02-26T10:24:40.411Z,72.80
2019-02-26T10:25:39.344Z,70.00
2019-02-26T10:26:41.094Z,70.70
2019-02-26T10:27:41.270Z,70.90
2019-02-26T10:28:40.338Z,73.20
2019-02-26T10:29:41.894Z,70.30
2019-02-26T10:30:41.589Z,67.20
2019-02-26T10:31:41.082Z,73.00
2019-02-26T10:32:39.232Z,71.60
2019-02-26T10:33:41.127Z,70.80
2019-02-26T10:34:39.216Z,74.40
2019-02-26T10:35:42.032Z,71.00
2019-02-26T10:36:43.442Z,69.30
2019-02-26T10:37:41.024Z,72.70
2019-02-26T10:38:39.166Z,71.10
2019-02-26T10:39:39.164Z,70.80
2019-02-26T10:40:50.691Z,72.10
2019-02-26T10:41:42.266Z,69.90
2019-02-26T10:42:39.938Z,71.10
2019-02-26T10:43:40.022Z,68.90
2019-02-26T10:44:39.110Z,69.20
2019-02-26T10:45:44.141Z,67.00
2019-02-26T10:46:42.724Z,69.80
2019-02-26T10:47:39.069Z,73.90
2019-02-26T10:48:41.060Z,70.30
2019-02-26T10:49:39.047Z,72.80
2019-02-26T10:50:42.239Z,71.00
2019-02-26T10:51:42.393Z,67.50
2019-02-26T10:52:39.010Z,67.10
2019-02-26T10:53:39.002Z,69.30
2019-02-26T10:54:40.555Z,70.50
2019-02-26T10:55:41.695Z,68.40
2019-02-26T10:56:41.710Z,72.20
2019-02-26T10:57:39.006Z,66.80
2019-02-26T10:58:39.019Z,72.10
2019-02-26T10:59:41.805Z,68.20
2019-02-26T11:00:38.918Z,67.40
2019-02-26T11:01:38.938Z,64.00
2019-02-26T11:02:40.835Z,67.20
2019-02-26T11:03:41.643Z,64.60
2019-02-26T11:04:41.844Z,67.50
2019-02-26T11:05:39.862Z,63.90
2019-02-26T11:06:41.742Z,65.90
2019-02-26T11:07:40.094Z,64.30
2019-02-26T11:08:38.830Z,65.50
2019-02-26T11:09:38.832Z,62.50
2019-02-26T11:10:41.801Z,64.20
2019-02-26T11:11:39.998Z,65.80
2019-02-26T11:12:38.792Z,65.10
2019-02-26T11:13:40.676Z,66.30
2019-02-26T11:14:39.634Z,65.30
2019-02-26T11:15:38.763Z,63.50
2019-02-26T11:16:39.151Z,66.80
2019-02-26T11:17:38.730Z,66.10
2019-02-26T11:18:39.812Z,72.90
2019-02-26T11:19:41.642Z,68.60
2019-02-26T11:20:38.712Z,69.40
2019-02-26T11:21:38.740Z,68.70
2019-02-26T11:22:41.646Z,71.70
2019-02-26T11:23:40.849Z,70.40
2019-02-26T11:24:38.671Z,71.10
2019-02-26T11:25:38.651Z,72.40
2019-02-26T11:26:40.747Z,71.40
2019-02-26T11:27:40.873Z,76.10
2019-02-26T11:28:40.549Z,79.40
2019-02-26T11:29:40.663Z,74.10
2019-02-26T11:30:38.587Z,74.30
2019-02-26T11:31:39.732Z,73.80
2019-02-26T11:32:40.390Z,71.10
2019-02-26T11:33:38.547Z,74.40
2019-02-26T11:34:38.545Z,70.50
2019-02-26T11:35:39.654Z,71.90
2019-02-26T11:36:40.892Z,72.60
2019-02-26T11:37:38.503Z,71.80
2019-02-26T11:38:40.318Z,72.80
2019-02-26T11:39:38.483Z,71.70
2019-02-26T11:40:38.470Z,70.50
2019-02-26T11:42:39.918Z,70.10
2019-02-26T11:43:38.438Z,71.60
2019-02-26T11:44:38.428Z,70.50
2019-02-26T11:45:40.042Z,74.20
2019-02-26T11:46:38.424Z,68.60
2019-02-26T11:47:39.146Z,70.40
2019-02-26T11:48:38.659Z,71.00
2019-02-26T11:49:39.513Z,66.60
2019-02-26T11:50:38.354Z,68.80
2019-02-26T11:51:41.846Z,66.80
2019-02-26T11:52:38.330Z,65.90
2019-02-26T11:54:40.228Z,71.00
2019-02-26T11:55:38.474Z,70.20
2019-02-26T11:56:42.040Z,67.80
2019-02-26T11:57:39.838Z,71.90
2019-02-26T11:58:38.438Z,71.40
2019-02-26T11:59:40.283Z,67.20
2019-02-26T12:00:41.724Z,63.50
2019-02-26T12:01:39.507Z,63.20
2019-02-26T12:02:39.234Z,68.30
2019-02-26T12:03:38.934Z,67.00
2019-02-26T12:04:38.207Z,64.60
2019-02-26T12:05:39.546Z,66.00
2019-02-26T12:06:38.210Z,64.20
2019-02-26T12:07:38.165Z,67.70
2019-02-26T12:08:40.587Z,66.20
2019-02-26T12:09:40.700Z,67.20
2019-02-26T12:10:40.415Z,68.90
2019-02-26T12:11:38.148Z,67.30
2019-02-26T12:12:38.148Z,67.40
2019-02-26T12:13:39.536Z,67.00
2019-02-26T12:14:42.636Z,64.50
2019-02-26T12:15:42.598Z,67.00
2019-02-26T12:16:38.216Z,68.00
2019-02-26T12:17:38.045Z,68.60
2019-02-26T12:18:39.122Z,68.30
2019-02-26T12:19:39.012Z,66.00
2019-02-26T12:20:40.329Z,64.00
2019-02-26T12:21:40.031Z,63.10
2019-02-26T12:22:41.213Z,70.90
2019-02-26T12:23:39.726Z,65.50
2019-02-26T12:24:38.021Z,69.00
2019-02-26T12:25:37.966Z,66.20
2019-02-26T12:26:38.918Z,64.60
2019-02-26T12:27:38.987Z,72.10
2019-02-26T12:28:40.238Z,65.30
2019-02-26T12:29:39.804Z,65.70
2019-02-26T12:30:41.236Z,67.30
2019-02-26T12:31:39.924Z,66.60
2019-02-26T12:32:38.013Z,61.60
2019-02-26T12:33:37.930Z,66.90
2019-02-26T12:34:38.592Z,66.40
2019-02-26T12:35:38.699Z,64.60
2019-02-26T12:36:37.892Z,64.20
2019-02-26T12:37:50.164Z,68.70
2019-02-26T12:38:38.850Z,65.30
2019-02-26T12:39:37.956Z,64.40
2019-02-26T12:40:40.497Z,68.40
2019-02-26T12:41:41.674Z,64.90
2019-02-26T12:42:38.771Z,65.90
2019-02-26T12:44:42.289Z,64.80
2019-02-26T12:45:40.579Z,69.90
2019-02-26T12:46:38.073Z,62.50
2019-02-26T12:47:40.696Z,67.00
2019-02-26T12:48:40.486Z,66.10
2019-02-26T12:49:41.623Z,62.80
2019-02-26T12:50:40.425Z,64.50
2019-02-26T12:51:37.667Z,67.50
2019-02-26T12:52:37.672Z,66.60
2019-02-26T12:54:40.809Z,66.10
2019-02-26T12:55:38.432Z,67.80
2019-02-26T12:56:37.791Z,68.80